KEDN

Details ICAO KEDN
Name Enterprise Muni
Region United States
Timezone America/Chicago (UTC-6.0)
Plans Departing 5
Arriving 9
Stats Elevation 361 ft / 110 m (AMSL)
Location 31.299710° -85.899832°
Runways 1
Magnetic Variation 3.784° W
Sunrise 2017-12-15 12:36:33 UTC / 2017-12-15 06:36:33 Local
Sunset 2017-12-15 22:43:58 UTC / 2017-12-15 16:43:58 Local
Advertisement - Login to hide

Runways

ID Width Length Bearing (true) Bearing (mag) Surface Threshold Offset Overrun Length
05 108 ft / 33 m 5,109 ft / 1,557 m 51.79° 55.57° Asphalt 0 ft / 0 m 0 ft / 0 m
23 108 ft / 33 m 5,109 ft / 1,557 m 231.80° 235.58° Asphalt 0 ft / 0 m 0 ft / 0 m

Map

Weather


0- 5 10 15 20 25 30 35+ Temperature / ° C

Clouds and Precipitation
Forecast for 2017-12-16 00:00 UTC. Updated an hour ago

Ground ~20,000 ft ~40,000 ft Winds

METAR

KEDN 152155Z AUTO 33005KT 10SM CLR 07/M01 A3014 RMK AO2 T00671012

TAF

Not found

Frequencies

Unicom 122.80 MHz CTAF/UNICOM
Approach 133.45 MHz CAIRNS APP/DEP
Warning: Do not use this data for real-world aviation or navigation. No guarantee of current accuracy is given.